sensor_id;sensor_type;location;lat;lon;timestamp;P1;durP1;ratioP1;P2;durP2;ratioP2
54815;SDS011;40715;55.752;37.884;2022-12-05T00:01:14;3.80;;;1.67;;
54815;SDS011;40715;55.752;37.884;2022-12-05T00:03:45;3.30;;;1.50;;
54815;SDS011;40715;55.752;37.884;2022-12-05T00:06:13;3.53;;;2.03;;
54815;SDS011;40715;55.752;37.884;2022-12-05T00:08:40;5.10;;;1.97;;
54815;SDS011;40715;55.752;37.884;2022-12-05T00:11:21;3.47;;;2.10;;
54815;SDS011;40715;55.752;37.884;2022-12-05T00:13:51;3.13;;;1.87;;
54815;SDS011;40715;55.752;37.884;2022-12-05T00:16:20;2.70;;;1.53;;
54815;SDS011;40715;55.752;37.884;2022-12-05T00:18:49;2.63;;;1.37;;
54815;SDS011;40715;55.752;37.884;2022-12-05T00:21:18;3.40;;;1.60;;
54815;SDS011;40715;55.752;37.884;2022-12-05T00:23:46;3.00;;;1.40;;
54815;SDS011;40715;55.752;37.884;2022-12-05T00:26:14;3.57;;;2.07;;
54815;SDS011;40715;55.752;37.884;2022-12-05T00:28:41;3.07;;;1.63;;
54815;SDS011;40715;55.752;37.884;2022-12-05T00:31:10;2.27;;;1.60;;
54815;SDS011;40715;55.752;37.884;2022-12-05T00:33:42;3.03;;;1.50;;
54815;SDS011;40715;55.752;37.884;2022-12-05T00:36:11;3.37;;;2.00;;
54815;SDS011;40715;55.752;37.884;2022-12-05T00:38:43;2.83;;;1.40;;
54815;SDS011;40715;55.752;37.884;2022-12-05T00:41:11;1.83;;;1.33;;
54815;SDS011;40715;55.752;37.884;2022-12-05T00:43:40;3.17;;;1.17;;
54815;SDS011;40715;55.752;37.884;2022-12-05T00:46:11;3.10;;;1.53;;
54815;SDS011;40715;55.752;37.884;2022-12-05T00:48:40;3.10;;;1.53;;
54815;SDS011;40715;55.752;37.884;2022-12-05T00:51:09;2.93;;;1.80;;
54815;SDS011;40715;55.752;37.884;2022-12-05T00:54:04;4.13;;;2.13;;
54815;SDS011;40715;55.752;37.884;2022-12-05T00:56:33;4.97;;;2.70;;
54815;SDS011;40715;55.752;37.884;2022-12-05T00:59:00;2.57;;;1.37;;
54815;SDS011;40715;55.752;37.884;2022-12-05T01:01:29;2.80;;;1.33;;
54815;SDS011;40715;55.752;37.884;2022-12-05T01:03:58;2.83;;;1.40;;
54815;SDS011;40715;55.752;37.884;2022-12-05T01:06:27;1.73;;;1.10;;
54815;SDS011;40715;55.752;37.884;2022-12-05T01:08:54;7.17;;;2.23;;
54815;SDS011;40715;55.752;37.884;2022-12-05T01:11:22;3.27;;;1.70;;
54815;SDS011;40715;55.752;37.884;2022-12-05T01:13:51;5.33;;;1.40;;
54815;SDS011;40715;55.752;37.884;2022-12-05T01:18:53;2.50;;;1.23;;
54815;SDS011;40715;55.752;37.884;2022-12-05T01:21:21;1.63;;;1.23;;
54815;SDS011;40715;55.752;37.884;2022-12-05T01:23:48;1.27;;;0.83;;
54815;SDS011;40715;55.752;37.884;2022-12-05T01:26:16;3.80;;;1.50;;
54815;SDS011;40715;55.752;37.884;2022-12-05T01:28:44;2.73;;;1.90;;
54815;SDS011;40715;55.752;37.884;2022-12-05T01:33:44;2.17;;;0.93;;
54815;SDS011;40715;55.752;37.884;2022-12-05T01:36:11;3.50;;;1.60;;
54815;SDS011;40715;55.752;37.884;2022-12-05T01:38:39;4.00;;;2.17;;
54815;SDS011;40715;55.752;37.884;2022-12-05T01:41:08;3.43;;;1.47;;
54815;SDS011;40715;55.752;37.884;2022-12-05T01:46:33;1.90;;;1.13;;
54815;SDS011;40715;55.752;37.884;2022-12-05T01:51:33;3.57;;;1.40;;
54815;SDS011;40715;55.752;37.884;2022-12-05T01:54:02;4.50;;;2.40;;
54815;SDS011;40715;55.752;37.884;2022-12-05T01:56:31;2.30;;;1.13;;
54815;SDS011;40715;55.752;37.884;2022-12-05T01:58:59;2.60;;;1.40;;
54815;SDS011;40715;55.752;37.884;2022-12-05T02:01:28;3.53;;;1.10;;
54815;SDS011;40715;55.752;37.884;2022-12-05T02:03:55;3.43;;;1.80;;
54815;SDS011;40715;55.752;37.884;2022-12-05T02:06:24;1.80;;;1.00;;
54815;SDS011;40715;55.752;37.884;2022-12-05T02:08:52;3.37;;;1.30;;
54815;SDS011;40715;55.752;37.884;2022-12-05T02:11:20;2.00;;;1.03;;
54815;SDS011;40715;55.752;37.884;2022-12-05T02:19:08;3.23;;;1.80;;
54815;SDS011;40715;55.752;37.884;2022-12-05T02:33:21;2.70;;;1.30;;
54815;SDS011;40715;55.752;37.884;2022-12-05T02:36:09;3.13;;;0.97;;
54815;SDS011;40715;55.752;37.884;2022-12-05T02:38:52;2.03;;;1.00;;
54815;SDS011;40715;55.752;37.884;2022-12-05T02:44:21;2.90;;;1.40;;
54815;SDS011;40715;55.752;37.884;2022-12-05T02:46:56;3.83;;;1.70;;
54815;SDS011;40715;55.752;37.884;2022-12-05T02:49:27;4.53;;;1.87;;
54815;SDS011;40715;55.752;37.884;2022-12-05T02:51:57;2.10;;;0.90;;
54815;SDS011;40715;55.752;37.884;2022-12-05T02:54:32;2.07;;;1.37;;
54815;SDS011;40715;55.752;37.884;2022-12-05T02:57:03;3.00;;;1.73;;
54815;SDS011;40715;55.752;37.884;2022-12-05T02:59:31;3.00;;;1.57;;
54815;SDS011;40715;55.752;37.884;2022-12-05T03:01:57;3.67;;;1.20;;
54815;SDS011;40715;55.752;37.884;2022-12-05T03:04:24;4.40;;;1.80;;
54815;SDS011;40715;55.752;37.884;2022-12-05T03:07:01;3.17;;;1.80;;
54815;SDS011;40715;55.752;37.884;2022-12-05T03:14:41;3.30;;;1.77;;
54815;SDS011;40715;55.752;37.884;2022-12-05T03:17:14;1.23;;;0.87;;
54815;SDS011;40715;55.752;37.884;2022-12-05T03:20:05;3.70;;;1.40;;
54815;SDS011;40715;55.752;37.884;2022-12-05T03:22:43;2.60;;;1.20;;
54815;SDS011;40715;55.752;37.884;2022-12-05T03:25:18;3.00;;;1.50;;
54815;SDS011;40715;55.752;37.884;2022-12-05T03:27:51;3.60;;;1.30;;
54815;SDS011;40715;55.752;37.884;2022-12-05T03:30:25;4.13;;;1.42;;
54815;SDS011;40715;55.752;37.884;2022-12-05T03:33:05;3.33;;;1.10;;
54815;SDS011;40715;55.752;37.884;2022-12-05T03:35:41;2.47;;;1.27;;
54815;SDS011;40715;55.752;37.884;2022-12-05T03:38:26;2.23;;;1.03;;
54815;SDS011;40715;55.752;37.884;2022-12-05T03:41:08;4.07;;;1.17;;
54815;SDS011;40715;55.752;37.884;2022-12-05T03:46:45;2.83;;;1.50;;
54815;SDS011;40715;55.752;37.884;2022-12-05T03:49:34;3.03;;;1.27;;
54815;SDS011;40715;55.752;37.884;2022-12-05T03:52:49;1.80;;;0.80;;
54815;SDS011;40715;55.752;37.884;2022-12-05T03:55:33;2.77;;;1.60;;
54815;SDS011;40715;55.752;37.884;2022-12-05T03:58:11;2.00;;;1.07;;
54815;SDS011;40715;55.752;37.884;2022-12-05T04:00:44;5.73;;;1.97;;
54815;SDS011;40715;55.752;37.884;2022-12-05T04:03:27;3.00;;;1.60;;
54815;SDS011;40715;55.752;37.884;2022-12-05T04:06:13;3.37;;;1.70;;
54815;SDS011;40715;55.752;37.884;2022-12-05T04:08:47;2.17;;;1.33;;
54815;SDS011;40715;55.752;37.884;2022-12-05T04:11:20;5.27;;;1.60;;
54815;SDS011;40715;55.752;37.884;2022-12-05T04:13:51;2.97;;;1.60;;
54815;SDS011;40715;55.752;37.884;2022-12-05T04:16:29;3.13;;;1.10;;
54815;SDS011;40715;55.752;37.884;2022-12-05T04:22:21;3.67;;;1.97;;
54815;SDS011;40715;55.752;37.884;2022-12-05T04:24:50;2.43;;;1.47;;
54815;SDS011;40715;55.752;37.884;2022-12-05T04:27:44;2.73;;;1.67;;
54815;SDS011;40715;55.752;37.884;2022-12-05T04:30:22;2.43;;;1.40;;
54815;SDS011;40715;55.752;37.884;2022-12-05T04:35:31;2.58;;;1.55;;
54815;SDS011;40715;55.752;37.884;2022-12-05T04:40:41;4.27;;;1.43;;
54815;SDS011;40715;55.752;37.884;2022-12-05T04:43:15;2.93;;;1.43;;
54815;SDS011;40715;55.752;37.884;2022-12-05T04:45:44;4.60;;;1.83;;
54815;SDS011;40715;55.752;37.884;2022-12-05T04:48:13;2.60;;;1.23;;
54815;SDS011;40715;55.752;37.884;2022-12-05T04:50:43;1.90;;;1.07;;
54815;SDS011;40715;55.752;37.884;2022-12-05T04:53:15;2.73;;;1.03;;
54815;SDS011;40715;55.752;37.884;2022-12-05T04:55:45;2.63;;;1.40;;
54815;SDS011;40715;55.752;37.884;2022-12-05T04:58:21;3.50;;;1.27;;
54815;SDS011;40715;55.752;37.884;2022-12-05T05:03:35;3.97;;;1.80;;
54815;SDS011;40715;55.752;37.884;2022-12-05T05:06:02;3.70;;;1.80;;
54815;SDS011;40715;55.752;37.884;2022-12-05T05:08:30;4.37;;;1.90;;
54815;SDS011;40715;55.752;37.884;2022-12-05T05:11:03;3.80;;;1.60;;
54815;SDS011;40715;55.752;37.884;2022-12-05T05:13:41;3.13;;;1.90;;
54815;SDS011;40715;55.752;37.884;2022-12-05T05:16:12;3.40;;;1.70;;
54815;SDS011;40715;55.752;37.884;2022-12-05T05:18:44;3.47;;;2.03;;
54815;SDS011;40715;55.752;37.884;2022-12-05T05:21:18;3.83;;;1.80;;
54815;SDS011;40715;55.752;37.884;2022-12-05T05:23:53;5.17;;;1.60;;
54815;SDS011;40715;55.752;37.884;2022-12-05T05:26:21;3.83;;;1.27;;
54815;SDS011;40715;55.752;37.884;2022-12-05T05:28:49;6.13;;;2.07;;
54815;SDS011;40715;55.752;37.884;2022-12-05T05:31:17;2.37;;;1.20;;
54815;SDS011;40715;55.752;37.884;2022-12-05T05:33:48;2.67;;;1.47;;
54815;SDS011;40715;55.752;37.884;2022-12-05T05:36:18;2.97;;;1.67;;
54815;SDS011;40715;55.752;37.884;2022-12-05T05:38:47;3.23;;;1.13;;
54815;SDS011;40715;55.752;37.884;2022-12-05T05:41:17;3.63;;;1.77;;
54815;SDS011;40715;55.752;37.884;2022-12-05T05:43:48;3.87;;;2.00;;
54815;SDS011;40715;55.752;37.884;2022-12-05T05:46:17;2.53;;;1.20;;
54815;SDS011;40715;55.752;37.884;2022-12-05T05:48:46;2.77;;;1.33;;
54815;SDS011;40715;55.752;37.884;2022-12-05T05:51:14;3.07;;;1.50;;
54815;SDS011;40715;55.752;37.884;2022-12-05T05:53:42;2.20;;;1.40;;
54815;SDS011;40715;55.752;37.884;2022-12-05T05:56:11;2.17;;;1.43;;
54815;SDS011;40715;55.752;37.884;2022-12-05T05:58:46;3.33;;;1.52;;
54815;SDS011;40715;55.752;37.884;2022-12-05T06:01:15;1.83;;;0.90;;
54815;SDS011;40715;55.752;37.884;2022-12-05T06:03:48;3.23;;;1.57;;
54815;SDS011;40715;55.752;37.884;2022-12-05T06:06:16;1.87;;;0.80;;
54815;SDS011;40715;55.752;37.884;2022-12-05T06:08:45;2.10;;;0.80;;
54815;SDS011;40715;55.752;37.884;2022-12-05T06:11:13;0.50;;;0.50;;
54815;SDS011;40715;55.752;37.884;2022-12-05T06:13:51;1.60;;;0.83;;
54815;SDS011;40715;55.752;37.884;2022-12-05T06:16:25;1.23;;;0.87;;
54815;SDS011;40715;55.752;37.884;2022-12-05T06:18:52;1.40;;;0.93;;
54815;SDS011;40715;55.752;37.884;2022-12-05T06:21:20;0.83;;;0.50;;
54815;SDS011;40715;55.752;37.884;2022-12-05T06:23:48;1.40;;;0.83;;
54815;SDS011;40715;55.752;37.884;2022-12-05T06:26:17;0.70;;;0.57;;
54815;SDS011;40715;55.752;37.884;2022-12-05T06:28:46;0.77;;;0.57;;
54815;SDS011;40715;55.752;37.884;2022-12-05T06:31:17;1.30;;;0.93;;
54815;SDS011;40715;55.752;37.884;2022-12-05T06:33:46;0.97;;;0.50;;
54815;SDS011;40715;55.752;37.884;2022-12-05T06:36:15;0.30;;;0.20;;
54815;SDS011;40715;55.752;37.884;2022-12-05T06:38:44;0.30;;;0.20;;
54815;SDS011;40715;55.752;37.884;2022-12-05T06:41:16;0.20;;;0.10;;
54815;SDS011;40715;55.752;37.884;2022-12-05T06:43:45;0.00;;;0.00;;
54815;SDS011;40715;55.752;37.884;2022-12-05T06:46:13;0.00;;;0.00;;
54815;SDS011;40715;55.752;37.884;2022-12-05T06:48:41;0.10;;;0.00;;
54815;SDS011;40715;55.752;37.884;2022-12-05T06:51:10;0.00;;;0.00;;
54815;SDS011;40715;55.752;37.884;2022-12-05T06:53:38;0.00;;;0.00;;
54815;SDS011;40715;55.752;37.884;2022-12-05T06:56:07;0.00;;;0.00;;
54815;SDS011;40715;55.752;37.884;2022-12-05T06:58:40;0.00;;;0.00;;
54815;SDS011;40715;55.752;37.884;2022-12-05T07:01:16;0.00;;;0.00;;
54815;SDS011;40715;55.752;37.884;2022-12-05T07:04:04;0.00;;;0.00;;
54815;SDS011;40715;55.752;37.884;2022-12-05T07:06:34;0.00;;;0.00;;
54815;SDS011;40715;55.752;37.884;2022-12-05T07:09:02;0.00;;;0.00;;
54815;SDS011;40715;55.752;37.884;2022-12-05T07:11:30;0.00;;;0.00;;
54815;SDS011;40715;55.752;37.884;2022-12-05T07:13:57;0.00;;;0.00;;
54815;SDS011;40715;55.752;37.884;2022-12-05T07:16:25;0.00;;;0.00;;
54815;SDS011;40715;55.752;37.884;2022-12-05T07:18:52;0.00;;;0.00;;
54815;SDS011;40715;55.752;37.884;2022-12-05T07:21:20;0.00;;;0.00;;
54815;SDS011;40715;55.752;37.884;2022-12-05T07:23:48;0.00;;;0.00;;
54815;SDS011;40715;55.752;37.884;2022-12-05T07:26:20;0.00;;;0.00;;
54815;SDS011;40715;55.752;37.884;2022-12-05T07:28:49;0.00;;;0.00;;
54815;SDS011;40715;55.752;37.884;2022-12-05T07:31:18;0.00;;;0.00;;
54815;SDS011;40715;55.752;37.884;2022-12-05T07:33:48;0.00;;;0.00;;
54815;SDS011;40715;55.752;37.884;2022-12-05T07:36:17;0.00;;;0.00;;
54815;SDS011;40715;55.752;37.884;2022-12-05T07:38:47;0.00;;;0.00;;
54815;SDS011;40715;55.752;37.884;2022-12-05T07:41:19;0.00;;;0.00;;
54815;SDS011;40715;55.752;37.884;2022-12-05T07:43:51;0.00;;;0.00;;
54815;SDS011;40715;55.752;37.884;2022-12-05T07:46:20;0.00;;;0.00;;
54815;SDS011;40715;55.752;37.884;2022-12-05T07:48:48;0.00;;;0.00;;
54815;SDS011;40715;55.752;37.884;2022-12-05T07:51:17;0.00;;;0.00;;
54815;SDS011;40715;55.752;37.884;2022-12-05T07:53:45;0.00;;;0.00;;
54815;SDS011;40715;55.752;37.884;2022-12-05T07:56:13;0.00;;;0.00;;
54815;SDS011;40715;55.752;37.884;2022-12-05T07:58:43;0.00;;;0.00;;
54815;SDS011;40715;55.752;37.884;2022-12-05T08:01:13;0.00;;;0.00;;
54815;SDS011;40715;55.752;37.884;2022-12-05T08:03:46;0.00;;;0.00;;
54815;SDS011;40715;55.752;37.884;2022-12-05T08:06:17;0.00;;;0.00;;
54815;SDS011;40715;55.752;37.884;2022-12-05T08:08:49;0.00;;;0.00;;
54815;SDS011;40715;55.752;37.884;2022-12-05T08:11:19;0.00;;;0.00;;
54815;SDS011;40715;55.752;37.884;2022-12-05T08:13:48;0.00;;;0.00;;
54815;SDS011;40715;55.752;37.884;2022-12-05T08:16:17;0.00;;;0.00;;
54815;SDS011;40715;55.752;37.884;2022-12-05T08:18:45;0.00;;;0.00;;
54815;SDS011;40715;55.752;37.884;2022-12-05T08:21:17;0.00;;;0.00;;
54815;SDS011;40715;55.752;37.884;2022-12-05T08:23:45;0.00;;;0.00;;
54815;SDS011;40715;55.752;37.884;2022-12-05T08:26:14;0.00;;;0.00;;
54815;SDS011;40715;55.752;37.884;2022-12-05T08:28:52;0.00;;;0.00;;
54815;SDS011;40715;55.752;37.884;2022-12-05T08:31:22;0.00;;;0.00;;
54815;SDS011;40715;55.752;37.884;2022-12-05T08:33:55;0.00;;;0.00;;
54815;SDS011;40715;55.752;37.884;2022-12-05T08:36:25;0.10;;;0.00;;
54815;SDS011;40715;55.752;37.884;2022-12-05T08:38:55;0.00;;;0.00;;
54815;SDS011;40715;55.752;37.884;2022-12-05T08:41:24;0.00;;;0.00;;
54815;SDS011;40715;55.752;37.884;2022-12-05T08:43:55;0.00;;;0.00;;
54815;SDS011;40715;55.752;37.884;2022-12-05T08:46:23;0.00;;;0.00;;
54815;SDS011;40715;55.752;37.884;2022-12-05T08:48:50;0.00;;;0.00;;
54815;SDS011;40715;55.752;37.884;2022-12-05T08:51:18;0.97;;;0.00;;
54815;SDS011;40715;55.752;37.884;2022-12-05T08:53:46;0.00;;;0.00;;
54815;SDS011;40715;55.752;37.884;2022-12-05T08:56:13;0.00;;;0.00;;
54815;SDS011;40715;55.752;37.884;2022-12-05T08:58:40;0.10;;;0.00;;
54815;SDS011;40715;55.752;37.884;2022-12-05T09:01:12;0.10;;;0.03;;
54815;SDS011;40715;55.752;37.884;2022-12-05T09:03:41;0.10;;;0.10;;
54815;SDS011;40715;55.752;37.884;2022-12-05T09:06:14;0.00;;;0.00;;
54815;SDS011;40715;55.752;37.884;2022-12-05T09:08:52;0.37;;;0.10;;
54815;SDS011;40715;55.752;37.884;2022-12-05T09:11:23;0.00;;;0.00;;
54815;SDS011;40715;55.752;37.884;2022-12-05T09:13:53;0.10;;;0.10;;
54815;SDS011;40715;55.752;37.884;2022-12-05T09:16:23;0.20;;;0.20;;
54815;SDS011;40715;55.752;37.884;2022-12-05T09:19:00;0.47;;;0.30;;
54815;SDS011;40715;55.752;37.884;2022-12-05T09:21:29;0.57;;;0.33;;
54815;SDS011;40715;55.752;37.884;2022-12-05T09:23:57;0.30;;;0.23;;
54815;SDS011;40715;55.752;37.884;2022-12-05T09:26:26;0.13;;;0.10;;
54815;SDS011;40715;55.752;37.884;2022-12-05T09:28:55;0.00;;;0.00;;
54815;SDS011;40715;55.752;37.884;2022-12-05T09:31:24;0.50;;;0.20;;
54815;SDS011;40715;55.752;37.884;2022-12-05T09:33:53;0.10;;;0.10;;
54815;SDS011;40715;55.752;37.884;2022-12-05T09:36:24;0.23;;;0.20;;
54815;SDS011;40715;55.752;37.884;2022-12-05T09:38:54;0.10;;;0.10;;
54815;SDS011;40715;55.752;37.884;2022-12-05T09:41:32;0.20;;;0.20;;
54815;SDS011;40715;55.752;37.884;2022-12-05T09:47:31;0.27;;;0.27;;
54815;SDS011;40715;55.752;37.884;2022-12-05T09:50:21;0.20;;;0.20;;
54815;SDS011;40715;55.752;37.884;2022-12-05T10:01:27;0.47;;;0.30;;
54815;SDS011;40715;55.752;37.884;2022-12-05T10:04:26;0.20;;;0.17;;
54815;SDS011;40715;55.752;37.884;2022-12-05T10:18:31;0.85;;;0.35;;
54815;SDS011;40715;55.752;37.884;2022-12-05T10:21:44;0.63;;;0.37;;
54815;SDS011;40715;55.752;37.884;2022-12-05T10:24:00;0.20;;;0.20;;
54815;SDS011;40715;55.752;37.884;2022-12-05T10:26:37;0.20;;;0.20;;
54815;SDS011;40715;55.752;37.884;2022-12-05T10:31:44;0.30;;;0.30;;
54815;SDS011;40715;55.752;37.884;2022-12-05T10:34:15;0.70;;;0.50;;
54815;SDS011;40715;55.752;37.884;2022-12-05T10:36:55;1.30;;;0.57;;
54815;SDS011;40715;55.752;37.884;2022-12-05T10:39:29;0.60;;;0.43;;
54815;SDS011;40715;55.752;37.884;2022-12-05T10:41:56;0.50;;;0.33;;
54815;SDS011;40715;55.752;37.884;2022-12-05T10:44:23;0.70;;;0.50;;
54815;SDS011;40715;55.752;37.884;2022-12-05T10:46:51;0.57;;;0.57;;
54815;SDS011;40715;55.752;37.884;2022-12-05T10:49:18;1.00;;;0.73;;
54815;SDS011;40715;55.752;37.884;2022-12-05T10:51:46;1.50;;;0.43;;
54815;SDS011;40715;55.752;37.884;2022-12-05T10:54:18;0.97;;;0.70;;
54815;SDS011;40715;55.752;37.884;2022-12-05T10:56:50;1.40;;;0.63;;
54815;SDS011;40715;55.752;37.884;2022-12-05T10:59:19;0.53;;;0.50;;
54815;SDS011;40715;55.752;37.884;2022-12-05T11:01:50;1.77;;;0.80;;
54815;SDS011;40715;55.752;37.884;2022-12-05T11:04:28;0.73;;;0.10;;
54815;SDS011;40715;55.752;37.884;2022-12-05T11:07:03;0.77;;;0.50;;
54815;SDS011;40715;55.752;37.884;2022-12-05T11:09:32;0.87;;;0.47;;
54815;SDS011;40715;55.752;37.884;2022-12-05T11:12:05;1.07;;;0.67;;
54815;SDS011;40715;55.752;37.884;2022-12-05T11:17:51;1.40;;;0.73;;
54815;SDS011;40715;55.752;37.884;2022-12-05T11:22:48;0.93;;;0.57;;
54815;SDS011;40715;55.752;37.884;2022-12-05T11:25:33;1.03;;;0.73;;
54815;SDS011;40715;55.752;37.884;2022-12-05T11:33:39;0.40;;;0.40;;
54815;SDS011;40715;55.752;37.884;2022-12-05T11:36:23;1.03;;;0.60;;
54815;SDS011;40715;55.752;37.884;2022-12-05T11:39:02;1.13;;;0.57;;
54815;SDS011;40715;55.752;37.884;2022-12-05T12:03:23;1.30;;;0.53;;
54815;SDS011;40715;55.752;37.884;2022-12-05T12:09:08;0.90;;;0.43;;
54815;SDS011;40715;55.752;37.884;2022-12-05T12:17:37;0.97;;;0.67;;
54815;SDS011;40715;55.752;37.884;2022-12-05T12:20:27;0.43;;;0.30;;
54815;SDS011;40715;55.752;37.884;2022-12-05T12:26:02;0.95;;;0.47;;
54815;SDS011;40715;55.752;37.884;2022-12-05T12:28:36;1.50;;;0.63;;
54815;SDS011;40715;55.752;37.884;2022-12-05T12:42:19;0.23;;;0.23;;
54815;SDS011;40715;55.752;37.884;2022-12-05T12:44:53;1.27;;;0.60;;
54815;SDS011;40715;55.752;37.884;2022-12-05T12:47:58;1.90;;;0.90;;
54815;SDS011;40715;55.752;37.884;2022-12-05T12:50:50;2.53;;;0.83;;
54815;SDS011;40715;55.752;37.884;2022-12-05T12:53:25;1.03;;;0.73;;
54815;SDS011;40715;55.752;37.884;2022-12-05T12:56:19;1.20;;;0.67;;
54815;SDS011;40715;55.752;37.884;2022-12-05T13:01:52;0.65;;;0.43;;
54815;SDS011;40715;55.752;37.884;2022-12-05T13:04:41;1.13;;;0.67;;
54815;SDS011;40715;55.752;37.884;2022-12-05T13:07:25;0.87;;;0.57;;
54815;SDS011;40715;55.752;37.884;2022-12-05T13:10:02;1.50;;;0.63;;
54815;SDS011;40715;55.752;37.884;2022-12-05T13:12:51;1.07;;;0.77;;
54815;SDS011;40715;55.752;37.884;2022-12-05T13:18:24;1.17;;;0.63;;
54815;SDS011;40715;55.752;37.884;2022-12-05T13:21:05;0.27;;;0.20;;
54815;SDS011;40715;55.752;37.884;2022-12-05T13:23:43;2.30;;;0.77;;
54815;SDS011;40715;55.752;37.884;2022-12-05T13:26:14;0.63;;;0.60;;
54815;SDS011;40715;55.752;37.884;2022-12-05T13:28:50;0.90;;;0.67;;
54815;SDS011;40715;55.752;37.884;2022-12-05T13:31:34;0.77;;;0.50;;
54815;SDS011;40715;55.752;37.884;2022-12-05T13:34:03;1.40;;;0.60;;
54815;SDS011;40715;55.752;37.884;2022-12-05T13:36:37;1.70;;;0.93;;
54815;SDS011;40715;55.752;37.884;2022-12-05T13:39:24;0.57;;;0.33;;
54815;SDS011;40715;55.752;37.884;2022-12-05T13:42:32;1.40;;;0.83;;
54815;SDS011;40715;55.752;37.884;2022-12-05T13:53:46;1.10;;;0.60;;
54815;SDS011;40715;55.752;37.884;2022-12-05T14:09:01;1.37;;;1.07;;
54815;SDS011;40715;55.752;37.884;2022-12-05T14:11:28;1.03;;;0.63;;
54815;SDS011;40715;55.752;37.884;2022-12-05T14:13:56;0.40;;;0.30;;
54815;SDS011;40715;55.752;37.884;2022-12-05T14:21:38;0.73;;;0.53;;
54815;SDS011;40715;55.752;37.884;2022-12-05T14:32:32;1.23;;;0.87;;
54815;SDS011;40715;55.752;37.884;2022-12-05T14:35:26;1.33;;;0.70;;
54815;SDS011;40715;55.752;37.884;2022-12-05T14:38:05;1.70;;;0.93;;
54815;SDS011;40715;55.752;37.884;2022-12-05T14:40:44;0.87;;;0.43;;
54815;SDS011;40715;55.752;37.884;2022-12-05T14:43:29;0.60;;;0.40;;
54815;SDS011;40715;55.752;37.884;2022-12-05T14:45:59;1.03;;;0.53;;
54815;SDS011;40715;55.752;37.884;2022-12-05T14:48:37;0.53;;;0.40;;
54815;SDS011;40715;55.752;37.884;2022-12-05T14:54:09;1.80;;;0.87;;
54815;SDS011;40715;55.752;37.884;2022-12-05T14:56:50;2.43;;;0.97;;
54815;SDS011;40715;55.752;37.884;2022-12-05T15:02:28;1.70;;;1.03;;
54815;SDS011;40715;55.752;37.884;2022-12-05T15:05:00;0.50;;;0.50;;
54815;SDS011;40715;55.752;37.884;2022-12-05T15:07:46;2.03;;;0.77;;
54815;SDS011;40715;55.752;37.884;2022-12-05T15:10:15;1.17;;;0.93;;
54815;SDS011;40715;55.752;37.884;2022-12-05T15:20:57;1.60;;;0.97;;
54815;SDS011;40715;55.752;37.884;2022-12-05T15:23:47;1.40;;;0.87;;
54815;SDS011;40715;55.752;37.884;2022-12-05T15:37:08;1.47;;;0.60;;
54815;SDS011;40715;55.752;37.884;2022-12-05T15:42:27;0.47;;;0.40;;
54815;SDS011;40715;55.752;37.884;2022-12-05T15:45:14;1.53;;;0.70;;
54815;SDS011;40715;55.752;37.884;2022-12-05T15:47:53;2.35;;;1.15;;
54815;SDS011;40715;55.752;37.884;2022-12-05T15:50:48;1.30;;;0.83;;
54815;SDS011;40715;55.752;37.884;2022-12-05T15:53:24;0.57;;;0.30;;
54815;SDS011;40715;55.752;37.884;2022-12-05T16:02:09;1.77;;;0.80;;
54815;SDS011;40715;55.752;37.884;2022-12-05T16:04:47;1.33;;;0.90;;
54815;SDS011;40715;55.752;37.884;2022-12-05T16:07:18;1.50;;;0.77;;
54815;SDS011;40715;55.752;37.884;2022-12-05T16:09:47;1.13;;;0.53;;
54815;SDS011;40715;55.752;37.884;2022-12-05T16:12:23;1.10;;;0.83;;
54815;SDS011;40715;55.752;37.884;2022-12-05T16:14:52;0.77;;;0.57;;
54815;SDS011;40715;55.752;37.884;2022-12-05T16:17:25;0.77;;;0.67;;
54815;SDS011;40715;55.752;37.884;2022-12-05T16:20:39;1.13;;;0.50;;
54815;SDS011;40715;55.752;37.884;2022-12-05T16:22:50;0.37;;;0.30;;
54815;SDS011;40715;55.752;37.884;2022-12-05T16:25:23;1.77;;;0.87;;
54815;SDS011;40715;55.752;37.884;2022-12-05T16:30:37;1.47;;;0.77;;
54815;SDS011;40715;55.752;37.884;2022-12-05T16:33:09;1.20;;;0.60;;
54815;SDS011;40715;55.752;37.884;2022-12-05T16:35:42;0.75;;;0.40;;
54815;SDS011;40715;55.752;37.884;2022-12-05T16:38:19;0.80;;;0.43;;
54815;SDS011;40715;55.752;37.884;2022-12-05T16:43:39;1.97;;;0.77;;
54815;SDS011;40715;55.752;37.884;2022-12-05T16:48:42;2.10;;;0.83;;
54815;SDS011;40715;55.752;37.884;2022-12-05T16:51:39;3.73;;;0.73;;
54815;SDS011;40715;55.752;37.884;2022-12-05T16:54:08;2.80;;;0.97;;
54815;SDS011;40715;55.752;37.884;2022-12-05T16:56:35;1.13;;;0.67;;
54815;SDS011;40715;55.752;37.884;2022-12-05T16:59:03;0.60;;;0.30;;
54815;SDS011;40715;55.752;37.884;2022-12-05T17:01:32;3.60;;;1.13;;
54815;SDS011;40715;55.752;37.884;2022-12-05T17:04:04;2.53;;;1.20;;
54815;SDS011;40715;55.752;37.884;2022-12-05T17:06:31;1.00;;;0.50;;
54815;SDS011;40715;55.752;37.884;2022-12-05T17:08:59;1.40;;;0.97;;
54815;SDS011;40715;55.752;37.884;2022-12-05T17:11:28;1.53;;;0.93;;
54815;SDS011;40715;55.752;37.884;2022-12-05T17:13:56;1.07;;;0.63;;
54815;SDS011;40715;55.752;37.884;2022-12-05T17:16:24;0.93;;;0.70;;
54815;SDS011;40715;55.752;37.884;2022-12-05T17:18:52;2.10;;;0.77;;
54815;SDS011;40715;55.752;37.884;2022-12-05T17:21:20;1.37;;;0.60;;
54815;SDS011;40715;55.752;37.884;2022-12-05T17:23:49;2.20;;;0.67;;
54815;SDS011;40715;55.752;37.884;2022-12-05T17:26:18;0.70;;;0.50;;
54815;SDS011;40715;55.752;37.884;2022-12-05T17:28:47;1.33;;;0.77;;
54815;SDS011;40715;55.752;37.884;2022-12-05T17:31:16;0.63;;;0.40;;
54815;SDS011;40715;55.752;37.884;2022-12-05T17:33:45;1.43;;;0.60;;
54815;SDS011;40715;55.752;37.884;2022-12-05T17:36:13;1.03;;;0.50;;
54815;SDS011;40715;55.752;37.884;2022-12-05T17:38:42;1.30;;;0.77;;
54815;SDS011;40715;55.752;37.884;2022-12-05T17:41:16;0.90;;;0.73;;
54815;SDS011;40715;55.752;37.884;2022-12-05T17:43:47;0.47;;;0.37;;
54815;SDS011;40715;55.752;37.884;2022-12-05T17:46:15;1.60;;;0.73;;
54815;SDS011;40715;55.752;37.884;2022-12-05T17:48:45;0.60;;;0.50;;
54815;SDS011;40715;55.752;37.884;2022-12-05T17:51:14;0.90;;;0.73;;
54815;SDS011;40715;55.752;37.884;2022-12-05T17:53:42;0.73;;;0.43;;
54815;SDS011;40715;55.752;37.884;2022-12-05T17:56:13;1.33;;;0.63;;
54815;SDS011;40715;55.752;37.884;2022-12-05T17:58:43;1.40;;;0.83;;
54815;SDS011;40715;55.752;37.884;2022-12-05T18:01:13;1.20;;;0.47;;
54815;SDS011;40715;55.752;37.884;2022-12-05T18:03:45;1.57;;;0.63;;
54815;SDS011;40715;55.752;37.884;2022-12-05T18:06:13;1.50;;;0.83;;
54815;SDS011;40715;55.752;37.884;2022-12-05T18:08:41;0.93;;;0.50;;
54815;SDS011;40715;55.752;37.884;2022-12-05T18:11:11;1.37;;;0.73;;
54815;SDS011;40715;55.752;37.884;2022-12-05T18:13:39;0.40;;;0.40;;
54815;SDS011;40715;55.752;37.884;2022-12-05T18:16:06;2.13;;;0.73;;
54815;SDS011;40715;55.752;37.884;2022-12-05T18:18:33;0.73;;;0.67;;
54815;SDS011;40715;55.752;37.884;2022-12-05T18:21:02;1.57;;;0.60;;
54815;SDS011;40715;55.752;37.884;2022-12-05T18:23:34;1.23;;;0.53;;
54815;SDS011;40715;55.752;37.884;2022-12-05T18:26:02;0.67;;;0.53;;
54815;SDS011;40715;55.752;37.884;2022-12-05T18:28:32;2.30;;;0.60;;
54815;SDS011;40715;55.752;37.884;2022-12-05T18:31:11;1.60;;;0.53;;
54815;SDS011;40715;55.752;37.884;2022-12-05T18:33:49;1.23;;;0.97;;
54815;SDS011;40715;55.752;37.884;2022-12-05T18:36:22;0.77;;;0.57;;
54815;SDS011;40715;55.752;37.884;2022-12-05T18:38:52;0.30;;;0.30;;
54815;SDS011;40715;55.752;37.884;2022-12-05T18:41:21;0.93;;;0.57;;